Time;durP1;ratioP1;P1;durP2;ratioP2;P2;SDS_P1;SDS_P2;PMS_P1;PMS_P2;Temp;Humidity;BMP_temperature;BMP_pressure;BME280_temperature;BME280_humidity;BME280_pressure;Samples;Min_cycle;Max_cycle;Signal;HPM_P1;HPM_P2
2023/11/13 00:01:52;;;;;;;1.98;0.57;;;14.90;75.70;;;;;;2130793;59;21094;-67
2023/11/13 00:04:18;;;;;;;2.40;0.43;;;14.90;75.90;;;;;;2130212;59;21018;-69
2023/11/13 00:06:45;;;;;;;2.00;0.57;;;14.90;75.90;;;;;;2330421;58;21931;-69
2023/11/13 00:09:12;;;;;;;1.45;0.40;;;14.90;75.90;;;;;;2129835;58;21005;-69
2023/11/13 00:11:38;;;;;;;0.90;0.40;;;14.90;75.90;;;;;;2330938;58;21062;-68
2023/11/13 00:14:04;;;;;;;1.08;0.40;;;14.90;75.90;;;;;;2130413;58;20999;-69
2023/11/13 00:16:31;;;;;;;1.10;0.40;;;14.90;76.00;;;;;;2331030;58;21018;-69
2023/11/13 00:18:58;;;;;;;1.65;0.50;;;14.90;76.00;;;;;;2130235;59;20961;-69
2023/11/13 00:21:27;;;;;;;2.28;0.85;;;14.90;76.00;;;;;;2330931;58;20999;-69
2023/11/13 00:24:00;;;;;;;2.28;0.40;;;14.90;76.00;;;;;;2331201;58;20978;-68
2023/11/13 00:26:27;;;;;;;2.53;0.50;;;14.90;75.90;;;;;;2330491;58;20991;-70
2023/11/13 00:28:53;;;;;;;2.05;0.57;;;14.90;75.90;;;;;;2129936;59;20990;-70
2023/11/13 00:31:21;;;;;;;1.85;0.65;;;14.90;76.00;;;;;;2129975;59;20986;-71
2023/11/13 00:33:48;;;;;;;1.58;0.40;;;14.90;76.00;;;;;;2334060;58;21010;-69
2023/11/13 00:36:15;;;;;;;2.12;0.88;;;15.00;76.10;;;;;;2334817;58;21499;-67
2023/11/13 00:38:41;;;;;;;3.83;0.60;;;15.00;76.20;;;;;;2330644;58;21038;-71
2023/11/13 00:41:11;;;;;;;1.33;0.45;;;15.00;76.20;;;;;;2331575;58;21014;-70
2023/11/13 00:43:37;;;;;;;1.87;0.62;;;15.00;76.20;;;;;;2129396;59;21027;-70
2023/11/13 00:46:06;;;;;;;1.87;0.40;;;15.00;76.30;;;;;;2130392;59;21315;-69
2023/11/13 00:48:33;;;;;;;2.03;0.50;;;15.00;76.20;;;;;;2331704;57;21087;-70
2023/11/13 00:51:00;;;;;;;1.83;0.43;;;15.10;76.40;;;;;;2332450;58;20973;-71
2023/11/13 00:53:27;;;;;;;1.15;0.40;;;15.00;76.20;;;;;;2330953;58;21069;-70
2023/11/13 00:55:53;;;;;;;1.25;0.40;;;15.00;76.20;;;;;;2331899;58;20966;-71
2023/11/13 00:58:24;;;;;;;4.97;0.55;;;15.10;76.30;;;;;;2130173;58;21062;-69
2023/11/13 01:00:51;;;;;;;1.27;0.47;;;15.10;76.30;;;;;;2135033;58;21013;-69
2023/11/13 01:03:17;;;;;;;1.85;0.43;;;15.10;76.30;;;;;;2332872;58;21002;-69
2023/11/13 01:05:44;;;;;;;1.50;0.40;;;15.10;76.30;;;;;;2330695;58;20974;-70
2023/11/13 01:08:11;;;;;;;1.33;0.40;;;15.10;76.30;;;;;;2331688;58;20994;-70
2023/11/13 01:10:37;;;;;;;1.23;0.40;;;15.10;76.30;;;;;;2128950;58;21015;-70
2023/11/13 01:13:04;;;;;;;1.77;0.50;;;15.10;76.30;;;;;;2130597;59;21793;-70
2023/11/13 01:15:37;;;;;;;1.90;0.55;;;15.20;76.40;;;;;;2331554;58;21121;-71
2023/11/13 01:18:23;;;;;;;2.60;0.65;;;15.10;76.40;;;;;;2329871;58;21046;-70
2023/11/13 01:20:50;;;;;;;2.20;0.62;;;15.20;76.30;;;;;;2129700;59;21032;-70
2023/11/13 01:23:16;;;;;;;2.55;0.60;;;15.20;76.40;;;;;;2331039;58;21989;-70
2023/11/13 01:25:42;;;;;;;3.45;0.85;;;15.20;77.10;;;;;;2335980;59;21030;-71
2023/11/13 01:28:09;;;;;;;3.47;0.90;;;15.20;76.30;;;;;;2330929;58;21046;-72
2023/11/13 01:30:35;;;;;;;2.78;0.80;;;15.20;76.30;;;;;;2132314;58;21017;-70
2023/11/13 01:33:02;;;;;;;5.80;1.00;;;15.20;76.30;;;;;;2132649;59;21101;-69
2023/11/13 01:35:28;;;;;;;2.75;0.80;;;15.20;76.30;;;;;;2129513;59;21001;-70
2023/11/13 01:37:54;;;;;;;2.90;0.70;;;15.30;76.40;;;;;;2331013;58;20985;-71
2023/11/13 01:40:22;;;;;;;4.18;0.82;;;15.30;76.40;;;;;;2331564;58;20970;-68
2023/11/13 01:42:48;;;;;;;3.12;0.80;;;15.30;76.40;;;;;;2129345;58;21019;-68
2023/11/13 01:45:15;;;;;;;5.85;0.95;;;15.30;76.40;;;;;;2102033;59;1857897;-69
2023/11/13 01:47:41;;;;;;;6.25;0.93;;;15.30;76.40;;;;;;2129353;59;20994;-68
2023/11/13 01:50:09;;;;;;;3.67;1.08;;;15.40;76.50;;;;;;2334706;58;21057;-68
2023/11/13 01:52:35;;;;;;;3.12;0.90;;;15.30;76.30;;;;;;2332920;58;21356;-68
2023/11/13 01:55:02;;;;;;;5.00;1.42;;;15.30;76.20;;;;;;2331732;58;21026;-68
2023/11/13 01:57:29;;;;;;;4.50;1.52;;;15.40;76.40;;;;;;2130157;58;20981;-69
2023/11/13 01:59:55;;;;;;;5.22;1.35;;;15.40;76.30;;;;;;2129635;59;21088;-67
2023/11/13 02:02:21;;;;;;;7.37;1.35;;;15.40;76.30;;;;;;2331483;58;20994;-69
2023/11/13 02:04:48;;;;;;;3.97;1.30;;;15.40;76.30;;;;;;2338777;58;21786;-69
2023/11/13 02:07:14;;;;;;;4.22;1.10;;;15.40;76.30;;;;;;2137895;59;20966;-68
2023/11/13 02:09:41;;;;;;;4.43;1.35;;;15.40;76.30;;;;;;2331785;58;21093;-68
2023/11/13 02:12:08;;;;;;;5.35;1.25;;;15.40;76.30;;;;;;2331604;58;20945;-67
2023/11/13 02:14:38;;;;;;;4.03;1.15;;;15.40;76.30;;;;;;2331707;58;21099;-67
2023/11/13 02:17:04;;;;;;;3.03;1.20;;;15.40;76.20;;;;;;2330992;58;20965;-68
2023/11/13 02:19:31;;;;;;;9.10;1.77;;;15.40;76.20;;;;;;2130052;59;21703;-68
2023/11/13 02:22:00;;;;;;;7.47;1.80;;;15.40;76.20;;;;;;2130295;59;21304;-68
2023/11/13 02:24:27;;;;;;;4.40;1.20;;;15.50;76.30;;;;;;2129662;59;21013;-69
2023/11/13 02:26:54;;;;;;;5.97;1.30;;;15.50;76.30;;;;;;2333121;58;21021;-68
2023/11/13 02:29:20;;;;;;;4.32;1.20;;;15.50;76.30;;;;;;2129645;59;21562;-68
2023/11/13 02:31:52;;;;;;;3.83;1.23;;;15.40;76.20;;;;;;2331193;58;21038;-68
2023/11/13 02:34:19;;;;;;;;;;;15.50;76.20;;;;;;2335455;58;20986;-68
2023/11/13 02:36:49;;;;;;;4.72;1.15;;;15.50;75.50;;;;;;2333669;58;20083;-68
2023/11/13 02:39:19;;;;;;;3.62;1.10;;;15.50;76.10;;;;;;2136787;59;21167;-69
2023/11/13 02:41:45;;;;;;;4.18;1.25;;;15.50;76.00;;;;;;2333948;58;21058;-68
2023/11/13 02:44:15;;;;;;;5.00;1.20;;;15.50;76.10;;;;;;2130236;59;21872;-68
2023/11/13 02:46:41;;;;;;;6.35;1.20;;;15.50;76.10;;;;;;2135098;58;21006;-67
2023/11/13 02:49:08;;;;;;;5.15;1.50;;;15.50;76.10;;;;;;2132518;58;21005;-67
2023/11/13 02:51:34;;;;;;;4.60;1.10;;;15.50;76.10;;;;;;2129345;59;20966;-69
2023/11/13 02:54:01;;;;;;;5.90;1.58;;;15.50;76.10;;;;;;2129608;59;20974;-68
2023/11/13 02:56:30;;;;;;;8.05;1.98;;;15.50;76.10;;;;;;2129635;59;20966;-68
2023/11/13 02:58:57;;;;;;;4.40;1.08;;;15.60;76.10;;;;;;2333646;58;21559;-68
2023/11/13 03:01:23;;;;;;;5.82;1.65;;;15.60;76.10;;;;;;2333343;58;21078;-66
2023/11/13 03:03:51;;;;;;;6.50;1.90;;;15.50;76.00;;;;;;2336463;59;20989;-67
2023/11/13 03:06:21;;;;;;;4.57;1.00;;;15.60;76.10;;;;;;2133786;59;21014;-69
2023/11/13 03:08:48;;;;;;;6.62;1.05;;;15.50;76.00;;;;;;2132585;59;21046;-67
2023/11/13 03:11:16;;;;;;;7.18;1.75;;;15.50;76.10;;;;;;2336776;59;21810;-69
2023/11/13 03:13:42;;;;;;;5.82;1.33;;;15.50;76.20;;;;;;2333031;58;21441;-68
2023/11/13 03:16:15;;;;;;;4.53;1.20;;;15.60;76.30;;;;;;2334151;58;21005;-69
2023/11/13 03:22:10;;;;;;;5.05;1.30;;;15.60;76.00;;;;;;2331324;58;20970;-68
2023/11/13 03:24:36;;;;;;;8.60;1.62;;;15.60;76.20;;;;;;2334341;58;21903;-69
2023/11/13 03:27:02;;;;;;;3.40;1.05;;;15.60;76.20;;;;;;2132441;59;21767;-67
2023/11/13 03:29:28;;;;;;;5.70;1.25;;;15.60;76.20;;;;;;2331529;58;21022;-69
2023/11/13 03:31:55;;;;;;;4.15;1.23;;;15.60;76.20;;;;;;2331434;58;21065;-69
2023/11/13 03:34:21;;;;;;;6.32;1.62;;;15.60;76.10;;;;;;2129872;58;20985;-70
2023/11/13 03:36:48;;;;;;;5.72;1.23;;;15.60;76.10;;;;;;2331075;58;20966;-68
2023/11/13 03:39:17;;;;;;;3.87;1.10;;;15.60;76.00;;;;;;2129846;59;20954;-68
2023/11/13 03:41:43;;;;;;;4.37;1.42;;;15.60;76.00;;;;;;2129668;59;20978;-69
2023/11/13 03:44:10;;;;;;;6.28;1.40;;;15.60;75.90;;;;;;2331672;58;21125;-67
2023/11/13 03:46:37;;;;;;;4.82;1.50;;;15.60;75.90;;;;;;2331623;58;21180;-67
2023/11/13 03:49:03;;;;;;;4.95;1.40;;;15.60;75.90;;;;;;2331639;58;20952;-68
2023/11/13 03:51:30;;;;;;;4.43;1.02;;;15.60;75.90;;;;;;2331541;58;21010;-67
2023/11/13 03:53:56;;;;;;;6.50;1.40;;;15.60;76.00;;;;;;2332029;58;20970;-68
2023/11/13 03:56:24;;;;;;;6.40;1.48;;;15.60;76.00;;;;;;2330890;58;20999;-69
2023/11/13 03:58:52;;;;;;;6.90;1.33;;;15.60;76.00;;;;;;2129509;59;21074;-68
2023/11/13 04:01:20;;;;;;;5.15;1.10;;;15.60;75.90;;;;;;2331572;58;21042;-68
2023/11/13 04:03:47;;;;;;;5.60;1.40;;;15.70;76.60;;;;;;2129897;59;21012;-67
2023/11/13 04:06:13;;;;;;;6.28;1.30;;;15.70;76.10;;;;;;2130105;58;20981;-69
2023/11/13 04:08:39;;;;;;;7.47;1.60;;;15.70;76.10;;;;;;2334335;58;21068;-68
2023/11/13 04:11:06;;;;;;;6.70;1.40;;;15.70;76.10;;;;;;2132991;59;20969;-69
2023/11/13 04:13:34;;;;;;;4.68;1.10;;;15.70;76.10;;;;;;2130379;58;20986;-67
2023/11/13 04:16:01;;;;;;;6.93;1.42;;;15.70;76.00;;;;;;2330959;58;21026;-69
2023/11/13 04:18:33;;;;;;;6.35;1.30;;;15.70;75.90;;;;;;2130017;59;20981;-69
2023/11/13 04:20:59;;;;;;;6.70;1.55;;;15.70;75.80;;;;;;2129448;59;21030;-68
2023/11/13 04:23:26;;;;;;;4.85;1.52;;;15.70;75.70;;;;;;2330848;58;21014;-68
2023/11/13 04:25:55;;;;;;;6.65;1.70;;;15.70;75.80;;;;;;2129837;59;21005;-68
2023/11/13 04:28:22;;;;;;;5.37;1.45;;;15.70;75.60;;;;;;2331950;58;20972;-67
2023/11/13 04:30:48;;;;;;;8.82;2.67;;;15.70;75.60;;;;;;2331817;58;21025;-69
2023/11/13 04:33:14;;;;;;;4.78;1.40;;;15.60;75.50;;;;;;2130327;59;20966;-70
2023/11/13 04:35:41;;;;;;;8.27;1.60;;;15.70;75.60;;;;;;2129880;59;21069;-68
2023/11/13 04:38:07;;;;;;;6.65;1.60;;;15.60;75.50;;;;;;2134999;59;21005;-69
2023/11/13 04:40:33;;;;;;;9.75;2.00;;;15.70;75.60;;;;;;2130602;59;21034;-71
2023/11/13 04:43:01;;;;;;;9.25;2.05;;;15.70;75.50;;;;;;2332048;58;20985;-68
2023/11/13 04:45:28;;;;;;;8.80;1.83;;;15.70;75.50;;;;;;2133750;59;21378;-69
2023/11/13 04:47:55;;;;;;;5.68;1.25;;;15.70;75.60;;;;;;2139713;59;20997;-68
2023/11/13 04:50:22;;;;;;;10.13;1.67;;;15.70;75.50;;;;;;2335272;58;21073;-70
2023/11/13 04:52:50;;;;;;;10.82;2.15;;;15.60;75.40;;;;;;2131313;59;21009;-69
2023/11/13 04:55:16;;;;;;;6.12;1.80;;;15.70;75.50;;;;;;2129207;59;21019;-68
2023/11/13 04:57:43;;;;;;;7.70;1.60;;;15.70;75.50;;;;;;2335618;58;20994;-70
2023/11/13 05:00:10;;;;;;;9.90;2.10;;;15.70;75.50;;;;;;2333615;58;21013;-68
2023/11/13 05:02:38;;;;;;;8.55;1.85;;;15.70;75.40;;;;;;2331970;58;21010;-68
2023/11/13 05:05:04;;;;;;;7.07;2.12;;;15.70;75.40;;;;;;2133012;59;21433;-69
2023/11/13 05:07:30;;;;;;;8.30;1.70;;;15.60;75.20;;;;;;2331943;57;21022;-69
2023/11/13 05:09:57;;;;;;;6.10;1.25;;;15.60;75.20;;;;;;2331503;58;21674;-69
2023/11/13 05:12:24;;;;;;;6.00;1.48;;;15.60;75.20;;;;;;2129471;59;21005;-68
2023/11/13 05:14:51;;;;;;;6.00;1.40;;;15.60;75.20;;;;;;2130194;59;21065;-70
2023/11/13 05:17:17;;;;;;;6.62;1.37;;;15.60;75.20;;;;;;2331043;58;20966;-68
2023/11/13 05:19:43;;;;;;;6.43;1.42;;;15.60;75.20;;;;;;2334666;58;21054;-69
2023/11/13 05:22:10;;;;;;;5.70;1.55;;;15.60;75.20;;;;;;2131118;59;21202;-68
2023/11/13 05:24:38;;;;;;;6.62;1.20;;;15.50;75.10;;;;;;2331078;58;21447;-68
2023/11/13 05:27:05;;;;;;;6.95;1.33;;;15.50;75.10;;;;;;2333338;58;20997;-68
2023/11/13 05:29:33;;;;;;;6.55;1.27;;;15.50;75.10;;;;;;2333407;58;20994;-69
2023/11/13 05:31:59;;;;;;;3.90;0.98;;;15.50;75.10;;;;;;2331249;58;21675;-69
2023/11/13 05:34:25;;;;;;;3.05;0.80;;;15.50;75.10;;;;;;2129334;59;21374;-68
2023/11/13 05:36:52;;;;;;;5.80;1.12;;;15.50;75.20;;;;;;2331573;58;21424;-71
2023/11/13 05:39:18;;;;;;;5.05;1.17;;;15.50;75.20;;;;;;2330864;58;20958;-69
2023/11/13 05:41:46;;;;;;;5.00;0.98;;;15.50;75.20;;;;;;2136776;59;21001;-69
2023/11/13 05:44:12;;;;;;;8.00;1.33;;;15.50;75.20;;;;;;2331872;58;21030;-69
2023/11/13 05:46:39;;;;;;;4.75;0.90;;;15.50;75.20;;;;;;2129697;59;21025;-68
2023/11/13 05:49:05;;;;;;;3.28;0.90;;;15.50;75.30;;;;;;2129660;59;20997;-69
2023/11/13 05:51:32;;;;;;;4.40;0.80;;;15.50;75.20;;;;;;2130225;59;21042;-69
2023/11/13 05:53:58;;;;;;;4.25;0.90;;;15.50;75.30;;;;;;2330238;58;20950;-69
2023/11/13 05:56:25;;;;;;;4.37;0.90;;;15.40;75.20;;;;;;2130020;58;21017;-67
2023/11/13 05:58:51;;;;;;;3.00;0.80;;;15.50;75.30;;;;;;2331706;58;20997;-69
2023/11/13 06:01:31;;;;;;;2.50;0.70;;;15.50;75.30;;;;;;2331082;58;20986;-68
2023/11/13 06:04:01;;;;;;;3.20;0.62;;;15.50;75.00;;;;;;2332051;58;20974;-67
2023/11/13 06:06:28;;;;;;;2.53;0.52;;;15.50;75.10;;;;;;2331427;58;21018;-69
2023/11/13 06:08:55;;;;;;;2.50;0.70;;;15.50;75.20;;;;;;2130263;59;21162;-68
2023/11/13 06:11:21;;;;;;;3.85;1.08;;;15.50;75.20;;;;;;2129411;59;21025;-67
2023/11/13 06:13:48;;;;;;;5.62;0.75;;;15.40;75.10;;;;;;2331461;58;20985;-68
2023/11/13 06:16:14;;;;;;;3.65;0.80;;;15.40;75.10;;;;;;2136557;59;21005;-69
2023/11/13 06:18:47;;;;;;;3.03;0.70;;;15.40;75.20;;;;;;2331027;58;20989;-68
2023/11/13 06:21:18;;;;;;;4.55;0.80;;;15.40;75.10;;;;;;2129101;58;20990;-68
2023/11/13 06:23:46;;;;;;;2.83;0.70;;;15.40;75.20;;;;;;2129417;59;21113;-67
2023/11/13 06:26:12;;;;;;;4.45;0.98;;;15.40;75.30;;;;;;2330889;58;20994;-68
2023/11/13 06:28:40;;;;;;;2.17;0.80;;;15.40;75.30;;;;;;2129138;58;20994;-70
2023/11/13 06:31:08;;;;;;;1.77;0.68;;;15.40;75.30;;;;;;2331152;58;21431;-68
2023/11/13 06:33:36;;;;;;;2.65;0.82;;;15.40;75.30;;;;;;2129424;59;20978;-68
2023/11/13 06:36:08;;;;;;;4.62;1.02;;;15.40;75.40;;;;;;2129645;59;21002;-68
2023/11/13 06:38:35;;;;;;;;;;;15.40;75.30;;;;;;2334254;58;21043;-69
2023/11/13 06:41:03;;;;;;;2.67;0.70;;;15.40;74.60;;;;;;2330618;58;20125;-68
2023/11/13 06:43:30;;;;;;;3.40;0.80;;;15.40;75.40;;;;;;2336814;58;21006;-68
2023/11/13 06:45:58;;;;;;;2.30;0.60;;;15.40;75.60;;;;;;2331909;58;20969;-69
2023/11/13 06:48:25;;;;;;;3.62;0.70;;;15.40;75.60;;;;;;2133111;59;21037;-67
2023/11/13 06:50:51;;;;;;;3.17;0.93;;;15.40;75.70;;;;;;2129251;58;21030;-69
2023/11/13 06:53:18;;;;;;;2.67;0.70;;;15.40;75.80;;;;;;2129117;58;20994;-69
2023/11/13 06:55:44;;;;;;;2.08;0.73;;;15.40;75.90;;;;;;2130280;59;21757;-70
2023/11/13 06:58:11;;;;;;;2.28;0.82;;;15.40;75.90;;;;;;2331861;58;20985;-68
2023/11/13 07:00:37;;;;;;;2.92;0.95;;;15.40;76.00;;;;;;2130093;59;20977;-68
2023/11/13 07:03:04;;;;;;;4.30;1.20;;;15.40;76.00;;;;;;2331430;58;21081;-66
2023/11/13 07:05:31;;;;;;;5.93;1.58;;;15.40;76.00;;;;;;2129666;59;21061;-67
2023/11/13 07:07:57;;;;;;;4.87;1.20;;;15.40;76.10;;;;;;2333600;58;21027;-69
2023/11/13 07:10:26;;;;;;;4.00;0.90;;;15.50;76.20;;;;;;2330248;58;20962;-68
2023/11/13 07:12:53;;;;;;;2.42;0.90;;;15.50;76.20;;;;;;2332151;58;20985;-68
2023/11/13 07:15:19;;;;;;;3.97;0.60;;;15.50;76.20;;;;;;2331266;58;21060;-67
2023/11/13 07:17:45;;;;;;;2.87;0.77;;;15.50;76.20;;;;;;2130739;59;21041;-67
2023/11/13 07:20:13;;;;;;;2.22;0.60;;;15.50;76.30;;;;;;2331908;58;21050;-68
2023/11/13 07:22:40;;;;;;;1.75;0.65;;;15.50;76.30;;;;;;2129425;59;20978;-68
2023/11/13 07:25:07;;;;;;;2.75;0.60;;;15.50;76.30;;;;;;2130051;59;20997;-69
2023/11/13 07:27:33;;;;;;;1.40;0.50;;;15.50;76.40;;;;;;2138502;58;20985;-69
2023/11/13 07:30:01;;;;;;;1.92;0.68;;;15.60;76.40;;;;;;2137685;59;21139;-69
2023/11/13 07:32:27;;;;;;;1.60;0.60;;;15.60;76.50;;;;;;2335295;58;21420;-67
2023/11/13 07:34:53;;;;;;;2.15;0.52;;;15.60;76.50;;;;;;2139487;59;21017;-68
2023/11/13 07:37:21;;;;;;;1.95;0.40;;;15.60;76.60;;;;;;2335279;58;21026;-67
2023/11/13 07:39:51;;;;;;;1.83;0.57;;;15.60;76.60;;;;;;2129934;58;21021;-69
2023/11/13 07:42:18;;;;;;;2.37;0.50;;;15.60;76.70;;;;;;2331334;58;21043;-68
2023/11/13 07:44:49;;;;;;;1.17;0.40;;;15.70;76.80;;;;;;2129537;59;21487;-68
2023/11/13 07:47:19;;;;;;;2.25;0.70;;;15.70;76.80;;;;;;2125903;59;21048;-68
2023/11/13 07:49:45;;;;;;;1.87;0.70;;;15.70;76.70;;;;;;2129771;58;21106;-69
2023/11/13 07:52:13;;;;;;;1.48;0.50;;;15.70;76.80;;;;;;2334856;58;21001;-70
2023/11/13 07:54:40;;;;;;;1.90;0.60;;;15.80;76.90;;;;;;2337666;59;20958;-69
2023/11/13 07:57:08;;;;;;;1.40;0.50;;;15.70;76.90;;;;;;2331877;58;21045;-67
2023/11/13 07:59:35;;;;;;;1.55;0.57;;;15.80;77.00;;;;;;2331108;58;20973;-68
2023/11/13 08:02:03;;;;;;;2.25;0.70;;;15.80;77.00;;;;;;2136625;59;21009;-67
2023/11/13 08:04:30;;;;;;;3.17;0.55;;;15.80;77.00;;;;;;2129621;59;20995;-67
2023/11/13 08:06:56;;;;;;;2.03;0.70;;;15.80;77.00;;;;;;2331965;58;20962;-69
2023/11/13 08:09:22;;;;;;;2.97;0.60;;;15.90;77.10;;;;;;2129377;59;21531;-67
2023/11/13 08:11:49;;;;;;;5.35;0.80;;;15.90;77.20;;;;;;2330985;58;21046;-68
2023/11/13 08:14:15;;;;;;;3.37;0.90;;;15.90;77.20;;;;;;2116439;59;21086;-68
2023/11/13 08:16:41;;;;;;;4.15;0.80;;;15.90;77.20;;;;;;2331209;58;20954;-70
2023/11/13 08:19:08;;;;;;;5.00;0.70;;;16.00;77.30;;;;;;2130360;59;21362;-68
2023/11/13 08:21:34;;;;;;;3.12;0.98;;;16.00;78.10;;;;;;2331067;58;21018;-68
2023/11/13 08:27:29;;;;;;;2.50;0.85;;;16.10;77.10;;;;;;2331078;58;21404;-68
2023/11/13 08:29:58;;;;;;;3.78;1.10;;;16.10;77.50;;;;;;2331889;58;21225;-69
2023/11/13 08:32:26;;;;;;;3.33;1.08;;;16.20;77.60;;;;;;2129855;58;21038;-67
2023/11/13 08:34:54;;;;;;;3.22;0.95;;;16.20;77.70;;;;;;2332099;58;20961;-69
2023/11/13 08:37:20;;;;;;;4.30;1.08;;;16.20;77.60;;;;;;2130098;59;20990;-69
2023/11/13 08:39:47;;;;;;;4.05;1.00;;;16.30;77.70;;;;;;2129832;59;21006;-68
2023/11/13 08:42:14;;;;;;;4.18;1.20;;;16.30;77.70;;;;;;2129677;59;21955;-69
2023/11/13 08:44:40;;;;;;;3.95;1.05;;;16.30;77.60;;;;;;2331309;58;21038;-69
2023/11/13 08:47:06;;;;;;;3.10;1.00;;;16.30;77.60;;;;;;2129752;59;21049;-68
2023/11/13 08:49:33;;;;;;;5.60;1.20;;;16.40;77.70;;;;;;2331236;58;20978;-69
2023/11/13 08:52:01;;;;;;;4.78;1.27;;;16.40;77.60;;;;;;2331540;58;21854;-67
2023/11/13 08:54:28;;;;;;;5.32;1.30;;;16.50;77.70;;;;;;2134020;59;21098;-67
2023/11/13 08:56:55;;;;;;;5.05;1.67;;;16.50;77.60;;;;;;2337957;59;20985;-68
2023/11/13 08:59:22;;;;;;;5.75;2.03;;;16.50;77.50;;;;;;2132304;59;21490;-67
2023/11/13 09:01:49;;;;;;;6.18;2.20;;;16.50;77.50;;;;;;2330962;58;21018;-67
2023/11/13 09:04:16;;;;;;;4.45;2.20;;;16.50;77.40;;;;;;2331859;58;21117;-68
2023/11/13 09:06:45;;;;;;;5.10;1.50;;;16.60;77.50;;;;;;2330933;58;20978;-70
2023/11/13 09:09:14;;;;;;;4.15;1.33;;;16.60;77.50;;;;;;2332032;58;20983;-68
2023/11/13 09:11:41;;;;;;;4.55;1.10;;;16.60;77.40;;;;;;2133226;59;21005;-69
2023/11/13 09:14:10;;;;;;;4.00;1.50;;;16.70;77.50;;;;;;2336698;58;21003;-68
2023/11/13 09:16:41;;;;;;;3.08;1.50;;;16.70;77.40;;;;;;2129205;59;21161;-67
2023/11/13 09:19:08;;;;;;;3.20;1.20;;;16.70;77.40;;;;;;2130894;58;20977;-68
2023/11/13 09:21:34;;;;;;;4.43;1.30;;;16.70;77.40;;;;;;2129204;59;21019;-67
2023/11/13 09:24:01;;;;;;;3.17;0.98;;;16.70;77.30;;;;;;2130375;59;20958;-68
2023/11/13 09:26:28;;;;;;;4.57;1.15;;;16.80;77.40;;;;;;2331527;58;21033;-69
2023/11/13 09:28:55;;;;;;;3.00;1.05;;;16.80;77.40;;;;;;2332243;58;21018;-69
2023/11/13 09:31:21;;;;;;;3.25;1.00;;;16.80;77.40;;;;;;2130055;58;21013;-67
2023/11/13 09:33:49;;;;;;;3.95;1.00;;;16.80;77.30;;;;;;2331587;58;21038;-69
2023/11/13 09:36:15;;;;;;;4.78;1.10;;;16.90;77.40;;;;;;2132276;58;21017;-68
2023/11/13 09:38:41;;;;;;;3.72;1.17;;;16.90;77.40;;;;;;2330533;58;21043;-68
2023/11/13 09:41:07;;;;;;;4.22;1.00;;;16.90;77.30;;;;;;2129949;59;21062;-68
2023/11/13 09:43:35;;;;;;;2.92;1.08;;;16.90;77.20;;;;;;2129627;59;21381;-70
2023/11/13 09:46:03;;;;;;;3.80;0.90;;;16.90;77.10;;;;;;2336674;59;20985;-68
2023/11/13 09:48:30;;;;;;;4.68;1.10;;;17.00;77.20;;;;;;2331681;58;20986;-68
2023/11/13 09:50:58;;;;;;;3.70;1.37;;;17.00;77.10;;;;;;2130212;59;21106;-69
2023/11/13 09:53:28;;;;;;;4.70;1.23;;;17.00;77.10;;;;;;2130326;58;21948;-67
2023/11/13 09:55:55;;;;;;;5.10;1.10;;;17.00;77.10;;;;;;2332225;58;20985;-70
2023/11/13 09:58:21;;;;;;;3.87;1.00;;;17.00;77.10;;;;;;2331664;58;22171;-67
2023/11/13 10:00:50;;;;;;;5.82;1.20;;;17.00;77.20;;;;;;2336924;59;21049;-68
2023/11/13 10:03:17;;;;;;;5.70;1.30;;;17.00;77.10;;;;;;2130037;58;20978;-70
2023/11/13 10:05:44;;;;;;;4.12;1.20;;;17.10;77.30;;;;;;2129587;58;21042;-70
2023/11/13 10:08:12;;;;;;;3.25;1.30;;;17.10;77.30;;;;;;2130488;58;22155;-68
2023/11/13 10:10:39;;;;;;;3.75;1.20;;;17.10;77.30;;;;;;2330802;58;21112;-69
2023/11/13 10:13:09;;;;;;;5.93;1.40;;;17.10;77.20;;;;;;2130271;59;20970;-68
2023/11/13 10:15:36;;;;;;;4.70;1.10;;;17.10;77.20;;;;;;2136563;59;21018;-69
2023/11/13 10:18:08;;;;;;;5.90;1.20;;;17.20;77.20;;;;;;2332032;58;21085;-70
2023/11/13 10:20:45;;;;;;;3.25;1.00;;;17.20;77.20;;;;;;2331130;58;20986;-68
2023/11/13 10:23:16;;;;;;;5.55;1.30;;;17.20;77.00;;;;;;2130724;59;20962;-70
2023/11/13 10:25:46;;;;;;;4.22;1.10;;;17.20;77.10;;;;;;2331234;58;20970;-68
2023/11/13 10:28:14;;;;;;;6.62;1.77;;;17.30;77.10;;;;;;2132547;59;21082;-67
2023/11/13 10:30:59;;;;;;;5.93;1.62;;;17.30;77.00;;;;;;2133233;59;20965;-69
2023/11/13 10:33:26;;;;;;;6.68;1.65;;;17.30;76.40;;;;;;2130239;58;21085;-67
2023/11/13 10:35:53;;;;;;;4.93;1.48;;;17.30;76.90;;;;;;2331160;58;20990;-68
2023/11/13 10:38:24;;;;;;;8.63;1.30;;;17.30;76.90;;;;;;2130085;58;20985;-68
2023/11/13 10:41:00;;;;;;;8.13;1.85;;;17.30;76.80;;;;;;2331613;58;21027;-70
2023/11/13 10:43:31;;;;;;;3.87;1.37;;;17.40;77.40;;;;;;2128507;59;21133;-68
2023/11/13 10:45:59;;;;;;;4.18;1.30;;;17.40;76.60;;;;;;2331808;58;21022;-69
2023/11/13 10:51:54;;;;;;;3.70;1.40;;;17.40;76.20;;;;;;2331623;58;20989;-71
2023/11/13 10:54:23;;;;;;;5.12;1.62;;;17.40;76.60;;;;;;2331766;58;21299;-68
2023/11/13 10:56:50;;;;;;;5.47;1.70;;;17.40;76.70;;;;;;2334736;58;20985;-70
2023/11/13 10:59:17;;;;;;;4.15;1.58;;;17.40;76.70;;;;;;2137538;59;21026;-70
2023/11/13 11:01:43;;;;;;;4.05;1.42;;;17.40;76.80;;;;;;2329612;58;21494;-69
2023/11/13 11:04:16;;;;;;;7.40;1.62;;;17.40;76.90;;;;;;2130369;58;20966;-70
2023/11/13 11:06:43;;;;;;;6.50;1.40;;;17.40;76.70;;;;;;2330464;58;21061;-68
2023/11/13 11:09:17;;;;;;;4.15;1.37;;;17.40;76.90;;;;;;2137378;59;21522;-68
2023/11/13 11:11:44;;;;;;;4.40;1.40;;;17.40;76.90;;;;;;2330642;58;21001;-70
2023/11/13 11:14:21;;;;;;;4.07;1.42;;;17.40;77.00;;;;;;2130368;59;21526;-72
2023/11/13 11:17:15;;;;;;;3.78;1.30;;;17.50;76.80;;;;;;2129140;59;22028;-68
2023/11/13 11:19:44;;;;;;;4.32;1.33;;;17.50;76.70;;;;;;2129245;58;20986;-69
2023/11/13 11:22:17;;;;;;;4.03;1.40;;;17.50;77.00;;;;;;2133655;59;21050;-70
2023/11/13 11:26:48;;;;;;;4.53;1.23;;;17.50;77.00;;;;;;2334370;58;20970;-69
2023/11/13 11:29:40;;;;;;;4.80;1.10;;;17.50;76.70;;;;;;2129625;58;21050;-69
2023/11/13 11:32:18;;;;;;;4.47;1.05;;;17.50;76.50;;;;;;2131365;59;21598;-69
2023/11/13 11:34:58;;;;;;;5.68;1.20;;;17.50;76.80;;;;;;2128512;58;21096;-68
2023/11/13 11:37:24;;;;;;;3.12;1.10;;;17.50;76.80;;;;;;2129746;59;21038;-70
2023/11/13 11:39:51;;;;;;;3.47;1.30;;;17.50;77.00;;;;;;2135252;59;21012;-69
2023/11/13 11:42:27;;;;;;;3.80;1.30;;;17.60;77.10;;;;;;2332692;58;21543;-67
2023/11/13 11:45:06;;;;;;;2.87;1.17;;;17.50;76.80;;;;;;2330956;58;21033;-70
2023/11/13 11:47:36;;;;;;;3.80;1.35;;;17.60;76.80;;;;;;2129448;59;21053;-68
2023/11/13 11:50:13;;;;;;;3.45;1.33;;;17.60;77.10;;;;;;2130377;58;20996;-68
2023/11/13 11:52:51;;;;;;;5.22;1.25;;;17.60;77.00;;;;;;2332947;58;21284;-70
2023/11/13 11:55:21;;;;;;;5.18;1.30;;;17.60;76.90;;;;;;2337124;59;21046;-68
2023/11/13 11:57:49;;;;;;;5.10;1.37;;;17.60;77.10;;;;;;2137748;59;21456;-70
2023/11/13 12:00:33;;;;;;;4.62;1.37;;;17.60;77.10;;;;;;2336024;58;20977;-69
2023/11/13 12:02:59;;;;;;;3.72;1.65;;;17.60;76.70;;;;;;2332078;58;20961;-69
2023/11/13 12:05:26;;;;;;;6.18;1.37;;;17.60;77.20;;;;;;2335296;58;21061;-68
2023/11/13 12:07:55;;;;;;;4.03;1.30;;;17.60;77.20;;;;;;2129416;59;21054;-70
2023/11/13 12:10:21;;;;;;;6.00;1.37;;;17.60;77.20;;;;;;2129893;59;20965;-70
2023/11/13 12:12:49;;;;;;;5.80;1.52;;;17.70;77.30;;;;;;2330752;58;21022;-69
2023/11/13 12:15:16;;;;;;;4.65;1.77;;;17.70;77.30;;;;;;2332649;58;21102;-69
2023/11/13 12:17:45;;;;;;;4.20;2.15;;;17.70;77.30;;;;;;2334761;58;21406;-68
2023/11/13 12:20:12;;;;;;;4.47;2.20;;;17.70;77.30;;;;;;2331734;58;20962;-70
2023/11/13 12:22:39;;;;;;;5.20;1.85;;;17.70;77.30;;;;;;2134093;59;21117;-68
2023/11/13 12:25:10;;;;;;;3.45;1.50;;;17.70;77.30;;;;;;2330887;58;23571;-68
2023/11/13 12:27:40;;;;;;;4.80;1.65;;;17.70;77.10;;;;;;2129939;58;21376;-68
2023/11/13 12:30:24;;;;;;;4.22;1.40;;;17.70;77.20;;;;;;2331545;58;20982;-69
2023/11/13 12:32:51;;;;;;;6.07;1.48;;;17.70;77.10;;;;;;2129753;59;21070;-69
2023/11/13 12:35:17;;;;;;;4.70;1.65;;;17.70;77.10;;;;;;2130247;59;21590;-67
2023/11/13 12:37:47;;;;;;;4.93;1.77;;;17.70;77.20;;;;;;2331149;58;21571;-68
2023/11/13 12:40:16;;;;;;;4.68;2.00;;;17.70;77.00;;;;;;2331916;58;21094;-68
2023/11/13 12:42:43;;;;;;;4.90;1.62;;;17.70;77.20;;;;;;2314851;59;21411;-70
2023/11/13 12:45:15;;;;;;;4.68;1.70;;;17.70;77.20;;;;;;2332009;58;21535;-69
2023/11/13 12:47:48;;;;;;;5.32;1.50;;;17.80;77.30;;;;;;2129295;59;20981;-67
2023/11/13 12:50:18;;;;;;;4.65;1.20;;;17.80;77.10;;;;;;2130136;59;20969;-68
2023/11/13 12:52:47;;;;;;;4.57;1.27;;;17.80;77.30;;;;;;2330979;58;21042;-69
2023/11/13 12:55:21;;;;;;;4.95;1.35;;;17.80;77.30;;;;;;2331641;58;21062;-68
2023/11/13 12:57:52;;;;;;;3.70;1.10;;;17.80;77.30;;;;;;2131832;59;21106;-68
2023/11/13 13:00:20;;;;;;;3.15;1.12;;;17.80;77.30;;;;;;2331544;58;21091;-67
2023/11/13 13:02:49;;;;;;;2.87;0.90;;;17.80;77.30;;;;;;2328746;58;20998;-69
2023/11/13 13:05:19;;;;;;;3.10;1.10;;;17.80;77.30;;;;;;2118746;60;21475;-67